Time;durP1;ratioP1;P1;durP2;ratioP2;P2;SDS_P1;SDS_P2;PMS_P1;PMS_P2;Temp;Humidity;BMP_temperature;BMP_pressure;BME280_temperature;BME280_humidity;BME280_pressure;Samples;Min_cycle;Max_cycle;Signal;HPM_P1;HPM_P2
2021/10/02 00:41:08;;;;;;;3.88;2.60;;;13.00;64.60;;;;;;5055733;28;20029;-62
2021/10/02 00:41:15;;;;;;;4.50;2.40;;;13.00;64.70;;;;;;5054109;28;20491;-62
2021/10/02 00:46:26;;;;;;;;;;;13.00;64.60;;;;;;5054749;28;20091;-63
2021/10/02 00:48:51;;;;;;;6.80;2.30;;;13.00;64.30;;;;;;5053729;28;20362;-63
2021/10/02 00:51:20;;;;;;;7.65;2.95;;;13.00;64.30;;;;;;5054256;28;20447;-63
2021/10/02 00:53:45;;;;;;;3.78;2.50;;;12.90;64.60;;;;;;5054233;28;20025;-63
2021/10/02 00:56:11;;;;;;;9.20;2.80;;;12.90;64.70;;;;;;5054139;28;20087;-62
2021/10/02 00:58:37;;;;;;;10.10;3.05;;;12.90;64.70;;;;;;5063867;28;20493;-62
2021/10/02 01:01:05;;;;;;;8.48;3.15;;;12.90;64.90;;;;;;5068981;28;20103;-62
2021/10/02 01:03:30;;;;;;;9.63;2.70;;;12.90;65.10;;;;;;5053837;28;20512;-63
2021/10/02 01:06:23;;;;;;;7.43;2.40;;;12.80;65.10;;;;;;5053741;28;20056;-63
2021/10/02 01:09:03;;;;;;;3.72;2.70;;;12.80;65.30;;;;;;5053882;28;20025;-63
2021/10/02 01:11:55;;;;;;;3.05;2.38;;;12.80;65.60;;;;;;5053604;28;20074;-63
2021/10/02 01:14:30;;;;;;;3.83;2.53;;;12.80;65.60;;;;;;5053777;28;20049;-63
2021/10/02 01:17:02;;;;;;;4.00;2.60;;;12.80;65.50;;;;;;5068766;28;20058;-63
2021/10/02 01:19:49;;;;;;;2.53;1.92;;;12.80;65.50;;;;;;5073767;28;20040;-62
2021/10/02 01:22:33;;;;;;;2.83;2.22;;;12.80;65.60;;;;;;5072002;28;20103;-62
2021/10/02 01:25:53;;;;;;;3.15;2.35;;;12.80;65.70;;;;;;5057621;28;20486;-62
2021/10/02 01:28:21;;;;;;;3.55;2.38;;;12.70;65.80;;;;;;5063994;28;20078;-62
2021/10/02 01:33:45;;;;;;;3.60;2.35;;;12.70;66.30;;;;;;5053717;28;20043;-63
2021/10/02 01:47:15;;;;;;;4.90;2.30;;;12.60;65.30;;;;;;5053456;28;20501;-62
2021/10/02 01:49:44;;;;;;;2.15;1.85;;;12.60;65.50;;;;;;5053117;28;20033;-66
2021/10/02 01:52:12;;;;;;;4.53;2.13;;;12.60;65.60;;;;;;5053063;28;20021;-62
2021/10/02 01:54:38;;;;;;;5.15;2.55;;;12.60;65.60;;;;;;5052976;28;20035;-62
2021/10/02 01:57:05;;;;;;;5.47;2.28;;;12.50;65.50;;;;;;5052721;28;20124;-62
2021/10/02 01:59:33;;;;;;;4.20;2.35;;;12.50;65.90;;;;;;5068099;28;20036;-63
2021/10/02 02:02:00;;;;;;;3.03;2.00;;;12.50;66.00;;;;;;5072062;28;20070;-63
2021/10/02 02:04:29;;;;;;;3.90;2.38;;;12.50;66.00;;;;;;5072905;28;20036;-63
2021/10/02 02:06:58;;;;;;;5.13;2.63;;;12.50;66.10;;;;;;5072121;28;20028;-63
2021/10/02 02:09:26;;;;;;;8.30;4.13;;;12.50;66.30;;;;;;5072726;28;20158;-62
2021/10/02 02:11:52;;;;;;;8.30;1.73;;;12.50;66.20;;;;;;5054796;28;20394;-63
2021/10/02 02:14:18;;;;;;;4.25;2.33;;;12.50;66.10;;;;;;5052607;28;20032;-63
2021/10/02 02:16:47;;;;;;;3.65;2.08;;;12.50;66.00;;;;;;5061693;28;20028;-64
2021/10/02 02:19:15;;;;;;;3.08;2.00;;;12.50;66.00;;;;;;5056411;28;20420;-63
2021/10/02 02:21:47;;;;;;;5.45;2.22;;;12.50;65.90;;;;;;5051675;28;20013;-63
2021/10/02 02:24:13;;;;;;;3.90;2.05;;;12.50;66.10;;;;;;5051631;28;20029;-64
2021/10/02 02:26:40;;;;;;;2.17;1.75;;;12.50;66.10;;;;;;5051349;28;20062;-63
2021/10/02 02:29:06;;;;;;;3.80;2.05;;;12.40;66.70;;;;;;5051438;28;20467;-63
2021/10/02 02:31:33;;;;;;;5.95;2.28;;;12.40;66.00;;;;;;5051394;28;20471;-63
2021/10/02 02:34:00;;;;;;;5.90;2.88;;;12.40;66.10;;;;;;5051580;28;20171;-64
2021/10/02 02:36:26;;;;;;;3.67;2.83;;;12.40;66.40;;;;;;5051208;28;20052;-63
2021/10/02 02:38:52;;;;;;;6.35;3.17;;;12.40;66.70;;;;;;5051295;28;20080;-63
2021/10/02 02:41:18;;;;;;;3.78;3.05;;;12.40;66.70;;;;;;5049808;28;20116;-62
2021/10/02 02:43:44;;;;;;;4.90;3.15;;;12.40;67.00;;;;;;5051253;28;20368;-63
2021/10/02 02:46:16;;;;;;;8.85;3.90;;;12.40;67.00;;;;;;5051135;28;20090;-63
2021/10/02 02:49:14;;;;;;;8.70;4.05;;;12.40;67.20;;;;;;5060281;28;20083;-63
2021/10/02 02:51:58;;;;;;;5.53;3.72;;;12.40;67.40;;;;;;5071048;28;20109;-62
2021/10/02 02:54:47;;;;;;;6.72;4.03;;;12.40;67.30;;;;;;5054680;28;20039;-63
2021/10/02 02:57:19;;;;;;;5.70;3.47;;;12.40;67.20;;;;;;5050971;28;20036;-63
2021/10/02 02:59:53;;;;;;;4.50;2.83;;;12.40;66.90;;;;;;5068607;28;20024;-63
2021/10/02 03:02:21;;;;;;;4.40;3.35;;;12.40;66.80;;;;;;5070585;28;20072;-63
2021/10/02 03:04:49;;;;;;;5.43;3.95;;;12.40;66.70;;;;;;5070837;28;20054;-62
2021/10/02 03:07:19;;;;;;;5.22;3.42;;;12.30;66.50;;;;;;5069475;28;20052;-63
2021/10/02 03:09:51;;;;;;;4.82;4.03;;;12.30;66.60;;;;;;5050854;28;20398;-63
2021/10/02 03:12:19;;;;;;;5.05;3.45;;;12.30;66.50;;;;;;5053545;28;20032;-63
2021/10/02 03:14:48;;;;;;;5.07;3.40;;;12.30;66.50;;;;;;5056094;28;20489;-62
2021/10/02 03:17:16;;;;;;;3.95;2.63;;;12.20;66.50;;;;;;5054916;28;20021;-63
2021/10/02 03:19:44;;;;;;;4.20;3.13;;;12.20;66.40;;;;;;5072375;28;20385;-63
2021/10/02 03:22:10;;;;;;;4.50;3.15;;;12.20;66.40;;;;;;5074771;28;20436;-63
2021/10/02 03:24:38;;;;;;;7.47;4.90;;;12.20;66.80;;;;;;5056718;28;20053;-63
2021/10/02 03:27:14;;;;;;;10.23;4.70;;;12.10;67.30;;;;;;5054728;28;20029;-62
2021/10/02 03:29:41;;;;;;;7.20;4.05;;;12.10;68.10;;;;;;5054761;28;20123;-63
2021/10/02 03:32:08;;;;;;;5.47;3.92;;;12.20;68.40;;;;;;5054786;28;20028;-62
2021/10/02 03:34:35;;;;;;;4.68;3.67;;;12.20;68.40;;;;;;5054757;28;20029;-63
2021/10/02 03:37:01;;;;;;;5.40;3.47;;;12.20;68.30;;;;;;5054592;28;20021;-63
2021/10/02 03:39:27;;;;;;;5.38;3.15;;;12.20;68.10;;;;;;5054530;28;20561;-63
2021/10/02 03:42:06;;;;;;;4.05;2.90;;;12.20;67.90;;;;;;5054412;28;20065;-64
2021/10/02 03:44:32;;;;;;;3.85;3.10;;;12.20;67.90;;;;;;5053193;28;20502;-63
2021/10/02 03:46:58;;;;;;;5.78;3.33;;;12.20;67.70;;;;;;5054589;28;20060;-64
2021/10/02 03:49:24;;;;;;;3.45;2.75;;;12.20;67.70;;;;;;5054748;28;20411;-63
2021/10/02 03:51:49;;;;;;;3.45;2.58;;;12.20;67.60;;;;;;5054512;28;20033;-64
2021/10/02 03:54:15;;;;;;;3.65;2.83;;;12.20;67.40;;;;;;5060381;28;20494;-63
2021/10/02 03:56:41;;;;;;;5.57;2.95;;;12.20;67.40;;;;;;5074353;28;20103;-63
2021/10/02 03:59:06;;;;;;;5.32;3.00;;;12.10;67.40;;;;;;5072427;28;20103;-63
2021/10/02 04:01:32;;;;;;;4.82;2.90;;;12.10;67.40;;;;;;5072665;28;20389;-63
2021/10/02 04:03:58;;;;;;;4.22;2.70;;;12.10;67.40;;;;;;5074322;28;20097;-63
2021/10/02 04:06:23;;;;;;;4.45;2.60;;;12.10;67.30;;;;;;5074348;28;20378;-63
2021/10/02 04:08:49;;;;;;;4.18;2.97;;;12.10;67.30;;;;;;5062415;28;20039;-63
2021/10/02 04:11:15;;;;;;;4.22;3.05;;;12.10;67.20;;;;;;5054149;28;20100;-63
2021/10/02 04:13:40;;;;;;;3.88;2.88;;;12.00;67.10;;;;;;5054378;28;20089;-62
2021/10/02 04:16:06;;;;;;;3.97;2.80;;;12.00;67.20;;;;;;5053899;28;20021;-63
2021/10/02 04:18:33;;;;;;;3.38;2.45;;;12.00;67.10;;;;;;5053990;28;20521;-63
2021/10/02 04:20:59;;;;;;;4.03;2.55;;;12.00;67.10;;;;;;5052733;28;20120;-63
2021/10/02 04:23:26;;;;;;;2.47;2.10;;;11.90;67.00;;;;;;5053076;28;20113;-63
2021/10/02 04:25:52;;;;;;;8.50;2.33;;;11.90;67.00;;;;;;5054044;28;20094;-64
2021/10/02 04:28:18;;;;;;;6.32;2.63;;;11.90;67.00;;;;;;5059352;28;20497;-64
2021/10/02 04:30:44;;;;;;;7.70;2.20;;;11.90;67.10;;;;;;5057617;28;20066;-63
2021/10/02 04:33:09;;;;;;;3.65;2.47;;;11.90;67.10;;;;;;5053891;28;20095;-63
2021/10/02 04:35:35;;;;;;;3.60;2.30;;;11.80;67.20;;;;;;5053697;28;20418;-63
2021/10/02 04:38:01;;;;;;;7.40;2.20;;;11.80;67.30;;;;;;5053586;28;20021;-63
2021/10/02 04:40:27;;;;;;;3.15;1.98;;;11.80;67.40;;;;;;5053591;28;20032;-63
2021/10/02 04:42:53;;;;;;;2.80;2.10;;;11.80;67.50;;;;;;5053576;28;20025;-63
2021/10/02 04:45:19;;;;;;;3.28;2.10;;;11.80;67.60;;;;;;5068436;28;20119;-62
2021/10/02 04:47:48;;;;;;;5.07;2.35;;;11.80;67.60;;;;;;5073171;28;20047;-63
2021/10/02 04:50:14;;;;;;;2.17;1.80;;;11.70;67.60;;;;;;5073505;28;20033;-63
2021/10/02 04:52:40;;;;;;;4.93;1.92;;;11.80;67.70;;;;;;5064374;28;20108;-63
2021/10/02 04:55:07;;;;;;;1.85;1.63;;;11.70;67.60;;;;;;5053333;28;20100;-64
2021/10/02 04:57:33;;;;;;;2.38;1.80;;;11.70;67.60;;;;;;5053272;28;20382;-63
2021/10/02 04:59:58;;;;;;;2.00;1.73;;;11.70;67.60;;;;;;5063341;28;20035;-63
2021/10/02 05:02:24;;;;;;;2.05;1.83;;;11.70;67.70;;;;;;5072558;28;20055;-63
2021/10/02 05:04:50;;;;;;;2.08;1.70;;;11.70;67.70;;;;;;5073173;28;20029;-63
2021/10/02 05:07:15;;;;;;;2.58;2.08;;;11.70;67.80;;;;;;5071876;28;20131;-64
2021/10/02 05:09:42;;;;;;;2.67;1.88;;;11.70;67.90;;;;;;5053063;28;20058;-64
2021/10/02 05:12:11;;;;;;;2.95;1.92;;;11.70;67.90;;;;;;5052974;28;20025;-64
2021/10/02 05:14:37;;;;;;;3.08;2.00;;;11.70;68.10;;;;;;5052710;28;20032;-63
2021/10/02 05:17:05;;;;;;;8.93;2.30;;;11.70;68.10;;;;;;5052761;28;20367;-62
2021/10/02 05:19:31;;;;;;;5.32;1.88;;;11.70;68.10;;;;;;5052810;28;20021;-63
2021/10/02 05:21:58;;;;;;;2.35;1.98;;;11.80;68.20;;;;;;5051578;28;20429;-63
2021/10/02 05:24:24;;;;;;;4.90;2.20;;;11.80;68.20;;;;;;5052684;28;20325;-63
2021/10/02 05:26:49;;;;;;;3.53;2.40;;;11.80;68.30;;;;;;5052596;28;20041;-63
2021/10/02 05:29:15;;;;;;;3.30;2.25;;;11.80;68.60;;;;;;5052353;28;20036;-63
2021/10/02 05:31:41;;;;;;;2.75;2.25;;;11.90;68.80;;;;;;5052535;28;20025;-63
2021/10/02 05:34:07;;;;;;;4.13;2.47;;;11.90;68.80;;;;;;5052348;28;20029;-63
2021/10/02 05:36:33;;;;;;;4.07;2.25;;;11.90;69.00;;;;;;5052338;28;20029;-63
2021/10/02 05:38:59;;;;;;;4.53;2.33;;;11.90;69.00;;;;;;5052310;28;20067;-63
2021/10/02 05:41:24;;;;;;;2.83;1.77;;;12.00;69.00;;;;;;5052347;28;20437;-63
2021/10/02 05:43:50;;;;;;;3.28;2.05;;;12.00;69.00;;;;;;5052186;28;20375;-63
2021/10/02 05:46:16;;;;;;;3.00;1.95;;;12.10;69.00;;;;;;5052257;28;20071;-63
2021/10/02 05:48:42;;;;;;;5.75;2.72;;;12.20;69.00;;;;;;5052174;28;20033;-63
2021/10/02 05:51:10;;;;;;;4.57;3.00;;;12.20;69.10;;;;;;5052181;28;20035;-64
2021/10/02 05:53:36;;;;;;;2.80;2.33;;;12.30;69.40;;;;;;5064634;28;20032;-63
2021/10/02 05:56:01;;;;;;;18.30;3.38;;;12.40;69.40;;;;;;5072323;28;20078;-64
2021/10/02 05:58:27;;;;;;;3.15;2.28;;;12.40;69.30;;;;;;5071724;28;20077;-63
2021/10/02 06:00:53;;;;;;;2.78;2.10;;;12.50;69.30;;;;;;5070159;28;20028;-63
2021/10/02 06:03:19;;;;;;;13.70;2.38;;;12.60;69.20;;;;;;5072044;28;20052;-64
2021/10/02 06:05:45;;;;;;;6.22;2.40;;;12.70;69.20;;;;;;5067059;28;20021;-64
2021/10/02 06:08:11;;;;;;;4.10;2.65;;;12.70;69.10;;;;;;5051717;28;20033;-63
2021/10/02 06:10:37;;;;;;;9.02;2.08;;;12.80;69.00;;;;;;5052128;28;20063;-63
2021/10/02 06:13:03;;;;;;;3.15;2.60;;;12.90;68.80;;;;;;5051937;28;20390;-64
2021/10/02 06:15:29;;;;;;;3.72;2.25;;;13.00;68.70;;;;;;5051797;28;20033;-63
2021/10/02 06:17:55;;;;;;;5.05;2.42;;;13.00;68.50;;;;;;5051776;28;20024;-63
2021/10/02 06:20:22;;;;;;;24.05;3.85;;;13.10;68.40;;;;;;5051626;28;20040;-62
2021/10/02 06:22:48;;;;;;;3.78;2.35;;;13.20;68.40;;;;;;5051572;28;20052;-63
2021/10/02 06:25:14;;;;;;;4.05;2.35;;;13.30;68.20;;;;;;5050391;28;20118;-63
2021/10/02 06:27:40;;;;;;;3.25;2.65;;;13.30;68.00;;;;;;5051667;28;20029;-63
2021/10/02 06:30:08;;;;;;;7.15;2.20;;;13.40;67.70;;;;;;5069784;28;20375;-63
2021/10/02 06:32:33;;;;;;;4.88;3.47;;;13.50;67.60;;;;;;5070175;28;20036;-63
2021/10/02 06:34:59;;;;;;;12.32;4.45;;;13.50;67.60;;;;;;5071323;28;20035;-63
2021/10/02 06:37:25;;;;;;;15.18;5.10;;;13.70;67.90;;;;;;5063016;28;20033;-63
2021/10/02 06:39:51;;;;;;;9.43;5.20;;;13.80;68.00;;;;;;5051491;28;20053;-63
2021/10/02 06:42:16;;;;;;;9.32;4.90;;;13.80;68.00;;;;;;5051447;28;20048;-63
2021/10/02 06:44:42;;;;;;;16.48;3.90;;;13.90;68.00;;;;;;5051686;28;20469;-62
2021/10/02 06:47:08;;;;;;;11.48;4.50;;;14.00;68.00;;;;;;5062644;28;20531;-63
2021/10/02 06:49:34;;;;;;;8.75;4.53;;;14.10;67.80;;;;;;5062752;28;20508;-63
2021/10/02 06:52:00;;;;;;;8.05;4.60;;;14.20;67.50;;;;;;5051306;28;20059;-63
2021/10/02 06:54:26;;;;;;;6.57;4.22;;;14.30;67.20;;;;;;5051368;28;20025;-63
2021/10/02 06:56:52;;;;;;;7.97;4.80;;;14.30;66.80;;;;;;5051172;28;20035;-63
2021/10/02 06:59:19;;;;;;;10.13;4.93;;;14.40;66.60;;;;;;5055506;28;20047;-63
2021/10/02 07:01:44;;;;;;;9.45;4.82;;;14.50;66.50;;;;;;5050810;28;20021;-63
2021/10/02 07:04:10;;;;;;;9.80;4.80;;;14.50;66.40;;;;;;5051925;28;20436;-63
2021/10/02 07:06:36;;;;;;;7.30;4.35;;;14.60;67.00;;;;;;5071432;28;20515;-63
2021/10/02 07:09:02;;;;;;;6.30;4.22;;;14.70;66.20;;;;;;5062461;28;20052;-63
2021/10/02 07:11:27;;;;;;;4.97;3.67;;;14.70;66.10;;;;;;5051192;28;20044;-63
2021/10/02 07:13:53;;;;;;;5.57;4.10;;;14.80;66.10;;;;;;5051177;28;20478;-63
2021/10/02 07:16:21;;;;;;;6.68;4.57;;;14.90;66.00;;;;;;5050616;28;20025;-63
2021/10/02 07:18:47;;;;;;;12.20;4.22;;;14.90;65.60;;;;;;5050852;28;20029;-63
2021/10/02 07:21:12;;;;;;;6.07;3.97;;;14.90;65.40;;;;;;5051112;28;20029;-62
2021/10/02 07:23:38;;;;;;;7.07;4.57;;;15.00;65.50;;;;;;5050919;28;20025;-63
2021/10/02 07:26:06;;;;;;;9.85;5.13;;;15.00;65.50;;;;;;5064042;28;20021;-62
2021/10/02 07:28:32;;;;;;;10.85;5.25;;;15.10;65.20;;;;;;5071283;28;20101;-63
2021/10/02 07:30:58;;;;;;;7.80;5.28;;;15.10;65.10;;;;;;5060202;28;20025;-63
2021/10/02 07:33:24;;;;;;;9.07;5.50;;;15.10;65.00;;;;;;5050821;28;20025;-63
2021/10/02 07:35:50;;;;;;;9.43;6.80;;;15.10;64.90;;;;;;5050839;28;20044;-62
2021/10/02 07:38:15;;;;;;;14.35;7.97;;;15.20;64.70;;;;;;5050604;28;20025;-63
2021/10/02 07:40:42;;;;;;;16.55;9.27;;;15.20;64.20;;;;;;5050618;28;20521;-63
2021/10/02 07:43:11;;;;;;;15.52;8.77;;;15.30;64.20;;;;;;5050841;28;20029;-63
2021/10/02 07:45:38;;;;;;;22.73;12.18;;;15.30;64.10;;;;;;5050639;28;20567;-62
2021/10/02 07:48:04;;;;;;;28.33;13.60;;;15.30;63.80;;;;;;5050577;28;20059;-62
2021/10/02 07:50:30;;;;;;;24.88;13.85;;;15.40;63.70;;;;;;5066425;28;20522;-63
2021/10/02 07:52:57;;;;;;;23.65;14.23;;;15.50;63.80;;;;;;5070345;28;20025;-63
2021/10/02 07:55:25;;;;;;;24.23;13.10;;;15.60;63.50;;;;;;5058154;28;20108;-63
2021/10/02 07:57:51;;;;;;;24.40;14.27;;;15.70;63.40;;;;;;5050620;28;20493;-63
2021/10/02 08:00:19;;;;;;;23.45;13.30;;;15.70;62.80;;;;;;5066304;28;20028;-63
2021/10/02 08:02:52;;;;;;;21.60;12.38;;;15.80;62.70;;;;;;5074049;28;20060;-63
2021/10/02 08:05:19;;;;;;;23.13;13.75;;;15.90;62.70;;;;;;5074141;28;20056;-63
2021/10/02 08:07:46;;;;;;;28.23;15.02;;;16.00;62.60;;;;;;5074311;28;20079;-63
2021/10/02 08:10:15;;;;;;;22.83;13.50;;;16.10;62.10;;;;;;5074254;28;20021;-63
2021/10/02 08:12:41;;;;;;;22.10;12.52;;;16.10;61.70;;;;;;5059245;28;20033;-63
2021/10/02 08:15:08;;;;;;;31.95;14.32;;;16.20;61.80;;;;;;5064959;28;20055;-63
2021/10/02 08:17:36;;;;;;;24.38;12.77;;;16.30;61.30;;;;;;5053969;28;20359;-63
2021/10/02 08:20:11;;;;;;;26.92;13.80;;;16.30;61.40;;;;;;5053990;28;20056;-63
2021/10/02 08:22:49;;;;;;;31.83;15.05;;;16.40;61.50;;;;;;5055372;28;20071;-62
2021/10/02 08:25:16;;;;;;;21.85;12.93;;;16.50;61.20;;;;;;5067539;28;20104;-63
2021/10/02 08:27:44;;;;;;;27.00;13.50;;;16.60;61.20;;;;;;5053898;28;20028;-63
2021/10/02 08:30:12;;;;;;;30.52;13.15;;;16.70;61.80;;;;;;5064365;28;20052;-63
2021/10/02 08:32:38;;;;;;;26.35;12.57;;;16.70;60.60;;;;;;5073170;28;20024;-63
2021/10/02 08:35:06;;;;;;;26.15;13.40;;;16.80;60.40;;;;;;5073896;28;20027;-63
2021/10/02 08:37:32;;;;;;;25.85;11.73;;;16.80;59.60;;;;;;5059869;28;20470;-63
2021/10/02 08:39:58;;;;;;;17.50;9.80;;;16.90;59.90;;;;;;5070032;28;20103;-63
2021/10/02 08:42:25;;;;;;;26.02;11.68;;;17.00;59.80;;;;;;5063407;28;20102;-63
2021/10/02 08:44:52;;;;;;;31.23;10.65;;;17.10;59.10;;;;;;5072867;28;20020;-63
2021/10/02 08:47:22;;;;;;;15.50;8.25;;;17.20;59.10;;;;;;5062014;28;20060;-63
2021/10/02 08:49:50;;;;;;;19.33;9.30;;;17.30;59.10;;;;;;5053592;28;20127;-63
2021/10/02 08:52:17;;;;;;;23.20;9.77;;;17.40;59.00;;;;;;5053622;28;20028;-62
2021/10/02 08:54:48;;;;;;;18.20;8.88;;;17.50;59.20;;;;;;5053700;28;20033;-63
2021/10/02 08:57:20;;;;;;;16.17;7.93;;;17.60;59.00;;;;;;5070028;28;20029;-63
2021/10/02 08:59:46;;;;;;;15.75;7.72;;;17.70;58.70;;;;;;5071362;28;20074;-64
2021/10/02 09:02:13;;;;;;;16.27;7.93;;;17.80;58.70;;;;;;5072890;28;20441;-63
2021/10/02 09:04:40;;;;;;;10.90;7.05;;;17.90;58.70;;;;;;5073236;28;20054;-63
2021/10/02 09:07:07;;;;;;;17.10;7.38;;;18.10;58.50;;;;;;5072842;28;20021;-64
2021/10/02 09:09:33;;;;;;;14.30;7.03;;;18.20;58.10;;;;;;5052984;28;20039;-63
2021/10/02 09:11:59;;;;;;;11.40;6.43;;;18.30;57.90;;;;;;5052972;28;20048;-63
2021/10/02 09:14:25;;;;;;;13.05;6.13;;;18.40;57.80;;;;;;5053921;28;20036;-64
2021/10/02 09:16:51;;;;;;;14.40;6.53;;;18.50;57.40;;;;;;5052834;28;20397;-63
2021/10/02 09:19:17;;;;;;;10.40;6.18;;;18.70;57.20;;;;;;5052756;28;20091;-63
2021/10/02 09:21:53;;;;;;;13.10;5.70;;;18.80;57.00;;;;;;5052936;28;20025;-63
2021/10/02 09:24:24;;;;;;;11.35;5.80;;;18.80;56.10;;;;;;5052836;28;20025;-65
2021/10/02 09:26:50;;;;;;;13.32;5.95;;;19.00;56.50;;;;;;5057228;28;20370;-64
2021/10/02 09:29:16;;;;;;;14.10;5.82;;;19.00;56.50;;;;;;5052673;28;20021;-64
2021/10/02 09:31:42;;;;;;;12.27;5.05;;;19.20;55.70;;;;;;5063685;28;20556;-65
2021/10/02 09:34:23;;;;;;;10.27;5.53;;;19.20;55.70;;;;;;5067841;28;20387;-64
2021/10/02 09:36:49;;;;;;;10.80;5.55;;;19.30;55.10;;;;;;5052613;28;20116;-64
2021/10/02 09:39:16;;;;;;;11.93;5.57;;;19.40;54.60;;;;;;5067841;28;20108;-64
2021/10/02 09:41:51;;;;;;;22.50;6.72;;;19.50;54.80;;;;;;5052837;28;20032;-64
2021/10/02 09:44:25;;;;;;;12.00;5.72;;;19.60;54.20;;;;;;5062014;28;20073;-63
2021/10/02 09:46:51;;;;;;;11.82;5.03;;;19.70;53.70;;;;;;5053344;28;20049;-63
2021/10/02 09:49:18;;;;;;;7.63;4.38;;;19.80;53.70;;;;;;5050981;28;20497;-64
2021/10/02 09:51:45;;;;;;;11.30;4.93;;;19.80;53.80;;;;;;5052242;28;20095;-64
2021/10/02 09:54:37;;;;;;;9.20;4.85;;;19.90;53.50;;;;;;5066777;28;20033;-63
2021/10/02 09:57:21;;;;;;;11.00;5.00;;;20.00;53.70;;;;;;5055873;28;20447;-63
2021/10/02 09:59:47;;;;;;;8.80;4.22;;;20.10;53.70;;;;;;5070273;28;20409;-64
2021/10/02 10:02:25;;;;;;;10.52;5.25;;;20.20;53.90;;;;;;5071680;28;20041;-64
2021/10/02 10:04:55;;;;;;;11.75;5.00;;;20.30;53.50;;;;;;5072233;28;20020;-64
2021/10/02 10:07:22;;;;;;;8.60;4.57;;;20.30;52.50;;;;;;5071749;28;20032;-64
2021/10/02 10:10:08;;;;;;;11.80;5.38;;;20.40;52.80;;;;;;5052155;28;20113;-64
2021/10/02 10:12:35;;;;;;;9.88;4.70;;;20.50;52.60;;;;;;5051787;28;20021;-64
2021/10/02 10:15:03;;;;;;;7.82;4.43;;;20.50;52.60;;;;;;5063612;28;20505;-64
2021/10/02 10:17:30;;;;;;;7.68;4.25;;;20.60;52.40;;;;;;5052276;28;20064;-64
2021/10/02 10:20:13;;;;;;;8.48;4.13;;;20.60;52.50;;;;;;5051104;28;20024;-64
2021/10/02 10:22:39;;;;;;;14.68;5.47;;;20.60;52.20;;;;;;5052105;28;20117;-64
2021/10/02 10:25:12;;;;;;;10.32;4.97;;;20.70;52.00;;;;;;5052553;28;20044;-64
2021/10/02 10:27:44;;;;;;;13.98;5.28;;;20.60;51.90;;;;;;5052476;28;20503;-64
2021/10/02 10:30:16;;;;;;;14.20;4.63;;;20.60;52.00;;;;;;5052581;28;20032;-65
2021/10/02 10:33:02;;;;;;;8.35;4.80;;;20.50;52.20;;;;;;5052453;28;20032;-65
2021/10/02 10:35:46;;;;;;;11.40;5.30;;;20.50;52.30;;;;;;5051841;28;20044;-66
2021/10/02 10:38:22;;;;;;;10.68;5.35;;;20.40;52.00;;;;;;5058160;28;20470;-64
2021/10/02 10:40:49;;;;;;;9.57;4.85;;;20.40;52.30;;;;;;5072245;28;20028;-64
2021/10/02 10:43:15;;;;;;;9.68;4.35;;;20.30;52.50;;;;;;5052470;28;20025;-64
2021/10/02 10:45:42;;;;;;;8.30;4.03;;;20.30;52.60;;;;;;5055899;28;20386;-64
2021/10/02 10:48:10;;;;;;;9.23;4.28;;;20.30;52.40;;;;;;5052072;28;20049;-64
2021/10/02 10:50:58;;;;;;;7.15;3.95;;;20.30;52.30;;;;;;5051738;28;20077;-64
2021/10/02 10:53:51;;;;;;;11.38;5.10;;;20.30;52.60;;;;;;5057472;28;20099;-64
2021/10/02 10:56:37;;;;;;;6.90;4.45;;;20.30;53.20;;;;;;5070111;28;20028;-64
2021/10/02 10:59:03;;;;;;;9.38;4.45;;;20.40;53.00;;;;;;5054610;28;20076;-63
2021/10/02 11:01:35;;;;;;;7.78;4.30;;;20.40;52.60;;;;;;5070405;28;20428;-64
2021/10/02 11:04:01;;;;;;;7.68;4.63;;;20.40;52.30;;;;;;5054611;28;20514;-64
2021/10/02 11:06:51;;;;;;;10.45;4.30;;;20.50;52.80;;;;;;5062890;28;20036;-64
2021/10/02 11:09:32;;;;;;;7.30;4.80;;;20.50;52.70;;;;;;5071074;28;20036;-64
2021/10/02 11:11:59;;;;;;;8.82;4.97;;;20.60;53.00;;;;;;5070254;28;20115;-64
2021/10/02 11:14:47;;;;;;;7.10;4.13;;;20.60;52.20;;;;;;5057528;28;20025;-65
2021/10/02 11:17:15;;;;;;;10.18;4.97;;;20.70;52.20;;;;;;5051507;28;20478;-64
2021/10/02 11:19:42;;;;;;;10.05;4.72;;;20.70;51.80;;;;;;5051753;28;20035;-64
2021/10/02 11:23:08;;;;;;;8.88;4.57;;;20.70;52.10;;;;;;5054746;28;20017;-64
2021/10/02 11:25:35;;;;;;;10.85;4.50;;;20.70;52.30;;;;;;5051813;28;20021;-64
2021/10/02 11:28:25;;;;;;;6.65;4.35;;;20.80;52.20;;;;;;5051751;28;20163;-65
2021/10/02 11:30:53;;;;;;;7.55;4.60;;;20.80;52.40;;;;;;5050499;28;20068;-66
2021/10/02 11:33:43;;;;;;;10.77;5.68;;;20.80;52.40;;;;;;5054138;28;20029;-64
2021/10/02 11:36:27;;;;;;;6.78;4.18;;;20.90;52.20;;;;;;5055367;28;20090;-64
2021/10/02 11:39:08;;;;;;;;;;;20.90;52.10;;;;;;5055953;28;20056;-65
2021/10/02 11:41:37;;;;;;;9.88;5.00;;;21.00;52.70;;;;;;5055590;28;19909;-64
2021/10/02 11:44:03;;;;;;;8.65;4.32;;;21.00;51.70;;;;;;5055490;28;20416;-65
2021/10/02 11:46:29;;;;;;;10.57;4.38;;;21.00;51.60;;;;;;5055469;28;20430;-64
2021/10/02 11:49:13;;;;;;;9.43;5.50;;;21.00;51.70;;;;;;5055473;28;20086;-64
2021/10/02 11:51:39;;;;;;;12.25;5.63;;;21.10;51.90;;;;;;5068833;28;20032;-64
2021/10/02 11:54:07;;;;;;;8.38;4.70;;;21.10;51.90;;;;;;5075046;28;20394;-64
2021/10/02 11:56:35;;;;;;;6.65;4.40;;;21.10;51.80;;;;;;5075253;28;20448;-64
2021/10/02 11:59:02;;;;;;;9.05;4.43;;;21.20;51.70;;;;;;5058032;28;20051;-65
2021/10/02 12:01:32;;;;;;;9.65;4.57;;;21.20;51.60;;;;;;5075015;28;20047;-64
2021/10/02 12:04:01;;;;;;;9.70;5.38;;;21.20;51.60;;;;;;5074872;28;20037;-64
2021/10/02 12:06:28;;;;;;;10.63;5.65;;;21.30;51.70;;;;;;5075087;28;20038;-64
2021/10/02 12:08:57;;;;;;;9.02;4.47;;;21.30;51.30;;;;;;5062952;28;20537;-64
2021/10/02 12:11:24;;;;;;;6.88;3.88;;;21.30;51.20;;;;;;5055311;28;20051;-65
2021/10/02 12:13:53;;;;;;;10.30;4.20;;;21.40;51.50;;;;;;5053770;28;20025;-64
2021/10/02 12:16:23;;;;;;;10.60;4.60;;;21.40;51.40;;;;;;5055020;28;20103;-64
2021/10/02 12:19:10;;;;;;;6.15;4.20;;;21.40;51.20;;;;;;5069937;28;20056;-63
2021/10/02 12:21:48;;;;;;;10.93;4.90;;;21.50;51.40;;;;;;5059306;28;20033;-63
2021/10/02 12:24:18;;;;;;;9.63;3.97;;;21.50;50.90;;;;;;5054758;28;20020;-63
2021/10/02 12:26:46;;;;;;;5.43;3.40;;;21.60;50.50;;;;;;5054777;28;20047;-64
2021/10/02 12:29:14;;;;;;;7.45;4.07;;;21.70;50.50;;;;;;5070615;28;20453;-64
2021/10/02 12:31:53;;;;;;;5.38;3.33;;;21.70;50.60;;;;;;5073544;28;20055;-64
2021/10/02 12:34:20;;;;;;;5.45;3.60;;;21.70;50.80;;;;;;5074448;28;20478;-65
2021/10/02 12:36:56;;;;;;;7.47;3.72;;;21.80;50.60;;;;;;5072926;28;20103;-64
2021/10/02 12:39:29;;;;;;;4.70;3.30;;;21.80;50.40;;;;;;5054571;28;20026;-64
2021/10/02 12:41:55;;;;;;;6.85;3.20;;;21.90;50.40;;;;;;5054077;28;20052;-64
2021/10/02 12:44:34;;;;;;;7.45;3.88;;;22.00;50.40;;;;;;5053711;28;20021;-64
2021/10/02 12:47:04;;;;;;;8.10;4.63;;;22.00;49.80;;;;;;5054586;28;20057;-64
2021/10/02 12:49:33;;;;;;;3.83;2.83;;;22.00;49.70;;;;;;5060286;28;20044;-64
2021/10/02 12:52:01;;;;;;;6.72;2.90;;;22.10;49.40;;;;;;5054240;28;20092;-64
2021/10/02 12:54:27;;;;;;;5.32;1.85;;;22.10;49.50;;;;;;5054364;28;20021;-65
2021/10/02 12:56:54;;;;;;;3.72;2.80;;;22.20;49.90;;;;;;5053988;28;20112;-64
2021/10/02 12:59:20;;;;;;;8.98;2.42;;;22.20;49.90;;;;;;5066377;28;20040;-65
2021/10/02 13:01:48;;;;;;;5.18;2.95;;;22.30;49.20;;;;;;5073484;28;20029;-65
2021/10/02 13:04:18;;;;;;;3.63;2.92;;;22.30;49.20;;;;;;5056540;28;20516;-64
2021/10/02 13:06:53;;;;;;;4.78;3.25;;;22.40;49.10;;;;;;5072711;28;20070;-65
2021/10/02 13:09:19;;;;;;;4.78;3.00;;;22.40;49.10;;;;;;5072371;28;20028;-65
2021/10/02 13:11:47;;;;;;;8.85;2.85;;;22.50;49.00;;;;;;5073759;28;20028;-65
2021/10/02 13:14:37;;;;;;;4.53;2.75;;;22.50;49.50;;;;;;5074413;28;20092;-64
2021/10/02 13:17:09;;;;;;;6.00;3.28;;;22.60;49.60;;;;;;5073172;28;20020;-65
2021/10/02 13:19:35;;;;;;;3.70;2.58;;;22.60;49.20;;;;;;5073446;28;20424;-65
2021/10/02 13:22:20;;;;;;;5.07;2.42;;;22.60;49.00;;;;;;5055004;28;20053;-64
2021/10/02 13:25:17;;;;;;;4.43;2.65;;;22.70;49.80;;;;;;5053607;28;20031;-64
2021/10/02 13:27:45;;;;;;;4.35;2.40;;;22.80;48.90;;;;;;5053488;28;20151;-65
2021/10/02 13:30:19;;;;;;;3.30;2.45;;;22.80;48.70;;;;;;5053558;28;20029;-64
2021/10/02 13:33:07;;;;;;;6.40;3.05;;;22.80;48.40;;;;;;5059692;28;20039;-65
2021/10/02 13:35:38;;;;;;;7.43;3.03;;;22.80;48.50;;;;;;5070785;28;20239;-64
2021/10/02 13:38:06;;;;;;;3.65;2.25;;;22.80;47.70;;;;;;5059577;28;20387;-64
2021/10/02 13:40:36;;;;;;;6.53;3.05;;;22.90;47.90;;;;;;5059955;28;20025;-65
2021/10/02 13:43:03;;;;;;;5.75;2.60;;;22.90;47.00;;;;;;5053438;28;20052;-65
2021/10/02 13:45:52;;;;;;;5.82;2.92;;;22.90;47.40;;;;;;5052950;28;20037;-65
2021/10/02 13:48:27;;;;;;;5.80;3.05;;;22.90;47.40;;;;;;5053164;28;20029;-65
2021/10/02 13:50:55;;;;;;;4.60;2.67;;;22.90;46.90;;;;;;5053096;28;20114;-64